sensor_id;sensor_type;location;lat;lon;timestamp;P1;durP1;ratioP1;P2;durP2;ratioP2
77417;SDS011;66490;51.484;0.026;2023-03-12T00:00:40;20.07;;;11.40;;
77417;SDS011;66490;51.484;0.026;2023-03-12T00:03:06;19.23;;;10.52;;
77417;SDS011;66490;51.484;0.026;2023-03-12T00:05:32;19.35;;;11.35;;
77417;SDS011;66490;51.484;0.026;2023-03-12T00:07:57;18.63;;;10.60;;
77417;SDS011;66490;51.484;0.026;2023-03-12T00:10:24;18.60;;;9.88;;
77417;SDS011;66490;51.484;0.026;2023-03-12T00:12:49;17.37;;;9.80;;
77417;SDS011;66490;51.484;0.026;2023-03-12T00:15:15;17.30;;;9.83;;
77417;SDS011;66490;51.484;0.026;2023-03-12T00:17:40;15.53;;;8.07;;
77417;SDS011;66490;51.484;0.026;2023-03-12T00:20:06;15.00;;;8.20;;
77417;SDS011;66490;51.484;0.026;2023-03-12T00:22:32;16.17;;;8.55;;
77417;SDS011;66490;51.484;0.026;2023-03-12T00:24:57;14.90;;;8.17;;
77417;SDS011;66490;51.484;0.026;2023-03-12T00:27:23;15.30;;;8.20;;
77417;SDS011;66490;51.484;0.026;2023-03-12T00:29:49;13.03;;;6.57;;
77417;SDS011;66490;51.484;0.026;2023-03-12T00:32:14;14.00;;;7.93;;
77417;SDS011;66490;51.484;0.026;2023-03-12T00:34:40;14.30;;;8.23;;
77417;SDS011;66490;51.484;0.026;2023-03-12T00:37:06;15.98;;;8.45;;
77417;SDS011;66490;51.484;0.026;2023-03-12T00:39:32;15.98;;;8.88;;
77417;SDS011;66490;51.484;0.026;2023-03-12T00:41:57;14.27;;;7.20;;
77417;SDS011;66490;51.484;0.026;2023-03-12T00:44:23;12.27;;;7.07;;
77417;SDS011;66490;51.484;0.026;2023-03-12T00:46:48;12.37;;;6.87;;
77417;SDS011;66490;51.484;0.026;2023-03-12T00:49:13;15.10;;;6.33;;
77417;SDS011;66490;51.484;0.026;2023-03-12T00:51:39;14.25;;;6.30;;
77417;SDS011;66490;51.484;0.026;2023-03-12T00:54:04;12.57;;;5.80;;
77417;SDS011;66490;51.484;0.026;2023-03-12T00:56:31;16.27;;;8.20;;
77417;SDS011;66490;51.484;0.026;2023-03-12T00:58:56;15.35;;;6.95;;
77417;SDS011;66490;51.484;0.026;2023-03-12T01:01:22;15.03;;;8.03;;
77417;SDS011;66490;51.484;0.026;2023-03-12T01:03:48;16.63;;;7.70;;
77417;SDS011;66490;51.484;0.026;2023-03-12T01:06:14;19.13;;;6.78;;
77417;SDS011;66490;51.484;0.026;2023-03-12T01:08:39;16.03;;;6.73;;
77417;SDS011;66490;51.484;0.026;2023-03-12T01:11:05;21.60;;;8.25;;
77417;SDS011;66490;51.484;0.026;2023-03-12T01:13:30;18.60;;;8.13;;
77417;SDS011;66490;51.484;0.026;2023-03-12T01:15:56;20.73;;;8.60;;
77417;SDS011;66490;51.484;0.026;2023-03-12T01:18:21;21.35;;;8.50;;
77417;SDS011;66490;51.484;0.026;2023-03-12T01:20:46;21.97;;;8.23;;
77417;SDS011;66490;51.484;0.026;2023-03-12T01:23:15;22.80;;;8.67;;
77417;SDS011;66490;51.484;0.026;2023-03-12T01:25:40;19.25;;;9.95;;
77417;SDS011;66490;51.484;0.026;2023-03-12T01:28:06;24.80;;;8.87;;
77417;SDS011;66490;51.484;0.026;2023-03-12T01:30:31;22.37;;;8.10;;
77417;SDS011;66490;51.484;0.026;2023-03-12T01:32:57;23.42;;;8.82;;
77417;SDS011;66490;51.484;0.026;2023-03-12T01:35:22;21.17;;;8.77;;
77417;SDS011;66490;51.484;0.026;2023-03-12T01:37:48;25.15;;;9.45;;
77417;SDS011;66490;51.484;0.026;2023-03-12T01:40:17;23.80;;;9.30;;
77417;SDS011;66490;51.484;0.026;2023-03-12T01:42:50;17.83;;;7.78;;
77417;SDS011;66490;51.484;0.026;2023-03-12T01:48:00;20.13;;;5.93;;
77417;SDS011;66490;51.484;0.026;2023-03-12T01:50:25;19.17;;;6.13;;
77417;SDS011;66490;51.484;0.026;2023-03-12T01:52:50;17.83;;;6.43;;
77417;SDS011;66490;51.484;0.026;2023-03-12T01:55:16;21.63;;;5.93;;
77417;SDS011;66490;51.484;0.026;2023-03-12T01:57:48;26.10;;;7.00;;
77417;SDS011;66490;51.484;0.026;2023-03-12T02:00:19;21.33;;;5.22;;
77417;SDS011;66490;51.484;0.026;2023-03-12T02:02:45;25.02;;;6.68;;
77417;SDS011;66490;51.484;0.026;2023-03-12T02:05:17;22.67;;;6.53;;
77417;SDS011;66490;51.484;0.026;2023-03-12T02:07:43;15.30;;;5.22;;
77417;SDS011;66490;51.484;0.026;2023-03-12T02:10:09;27.53;;;6.87;;
77417;SDS011;66490;51.484;0.026;2023-03-12T02:12:35;25.00;;;5.27;;
77417;SDS011;66490;51.484;0.026;2023-03-12T02:15:00;20.10;;;5.18;;
77417;SDS011;66490;51.484;0.026;2023-03-12T02:17:26;20.43;;;5.23;;
77417;SDS011;66490;51.484;0.026;2023-03-12T02:22:20;21.35;;;5.55;;
77417;SDS011;66490;51.484;0.026;2023-03-12T02:25:03;21.20;;;5.72;;
77417;SDS011;66490;51.484;0.026;2023-03-12T02:27:31;17.40;;;5.88;;
77417;SDS011;66490;51.484;0.026;2023-03-12T02:29:57;26.08;;;5.28;;
77417;SDS011;66490;51.484;0.026;2023-03-12T02:32:25;23.67;;;5.40;;
77417;SDS011;66490;51.484;0.026;2023-03-12T02:34:50;21.48;;;5.22;;
77417;SDS011;66490;51.484;0.026;2023-03-12T02:37:16;23.20;;;5.57;;
77417;SDS011;66490;51.484;0.026;2023-03-12T02:39:42;22.45;;;5.53;;
77417;SDS011;66490;51.484;0.026;2023-03-12T02:42:08;22.13;;;5.32;;
77417;SDS011;66490;51.484;0.026;2023-03-12T02:44:33;19.37;;;5.27;;
77417;SDS011;66490;51.484;0.026;2023-03-12T02:47:00;17.38;;;4.97;;
77417;SDS011;66490;51.484;0.026;2023-03-12T02:49:27;22.67;;;5.47;;
77417;SDS011;66490;51.484;0.026;2023-03-12T02:51:54;16.98;;;4.47;;
77417;SDS011;66490;51.484;0.026;2023-03-12T02:54:20;20.20;;;4.97;;
77417;SDS011;66490;51.484;0.026;2023-03-12T02:56:45;22.30;;;5.40;;
77417;SDS011;66490;51.484;0.026;2023-03-12T02:59:11;21.48;;;6.00;;
77417;SDS011;66490;51.484;0.026;2023-03-12T03:01:37;19.23;;;4.30;;
77417;SDS011;66490;51.484;0.026;2023-03-12T03:04:03;16.25;;;4.78;;
77417;SDS011;66490;51.484;0.026;2023-03-12T03:06:29;17.77;;;4.43;;
77417;SDS011;66490;51.484;0.026;2023-03-12T03:08:55;21.40;;;4.30;;
77417;SDS011;66490;51.484;0.026;2023-03-12T03:11:20;27.58;;;4.68;;
77417;SDS011;66490;51.484;0.026;2023-03-12T03:13:49;20.90;;;4.30;;
77417;SDS011;66490;51.484;0.026;2023-03-12T03:16:15;23.07;;;4.60;;
77417;SDS011;66490;51.484;0.026;2023-03-12T03:18:40;25.77;;;5.37;;
77417;SDS011;66490;51.484;0.026;2023-03-12T03:21:08;26.45;;;5.43;;
77417;SDS011;66490;51.484;0.026;2023-03-12T03:23:34;16.10;;;4.10;;
77417;SDS011;66490;51.484;0.026;2023-03-12T03:26:00;22.60;;;5.40;;
77417;SDS011;66490;51.484;0.026;2023-03-12T03:28:26;23.80;;;4.55;;
77417;SDS011;66490;51.484;0.026;2023-03-12T03:30:52;17.05;;;4.10;;
77417;SDS011;66490;51.484;0.026;2023-03-12T03:33:18;22.90;;;4.80;;
77417;SDS011;66490;51.484;0.026;2023-03-12T03:35:43;18.40;;;4.17;;
77417;SDS011;66490;51.484;0.026;2023-03-12T03:38:08;21.02;;;4.15;;
77417;SDS011;66490;51.484;0.026;2023-03-12T03:40:34;21.20;;;4.30;;
77417;SDS011;66490;51.484;0.026;2023-03-12T03:42:59;19.13;;;4.17;;
77417;SDS011;66490;51.484;0.026;2023-03-12T03:45:24;27.23;;;5.50;;
77417;SDS011;66490;51.484;0.026;2023-03-12T03:47:50;19.30;;;4.13;;
77417;SDS011;66490;51.484;0.026;2023-03-12T03:50:15;18.90;;;3.50;;
77417;SDS011;66490;51.484;0.026;2023-03-12T03:52:41;22.02;;;5.85;;
77417;SDS011;66490;51.484;0.026;2023-03-12T03:55:06;25.07;;;4.73;;
77417;SDS011;66490;51.484;0.026;2023-03-12T03:57:32;22.80;;;3.90;;
77417;SDS011;66490;51.484;0.026;2023-03-12T03:59:57;22.63;;;4.20;;
77417;SDS011;66490;51.484;0.026;2023-03-12T04:02:23;29.20;;;4.65;;
77417;SDS011;66490;51.484;0.026;2023-03-12T04:04:49;30.55;;;4.82;;
77417;SDS011;66490;51.484;0.026;2023-03-12T04:07:15;19.53;;;3.93;;
77417;SDS011;66490;51.484;0.026;2023-03-12T04:09:40;28.90;;;5.43;;
77417;SDS011;66490;51.484;0.026;2023-03-12T04:12:07;27.65;;;4.75;;
77417;SDS011;66490;51.484;0.026;2023-03-12T04:14:32;24.40;;;4.63;;
77417;SDS011;66490;51.484;0.026;2023-03-12T04:16:58;20.03;;;4.33;;
77417;SDS011;66490;51.484;0.026;2023-03-12T04:19:23;29.23;;;4.43;;
77417;SDS011;66490;51.484;0.026;2023-03-12T04:21:48;20.63;;;3.80;;
77417;SDS011;66490;51.484;0.026;2023-03-12T04:24:14;28.50;;;4.87;;
77417;SDS011;66490;51.484;0.026;2023-03-12T04:26:40;23.17;;;3.63;;
77417;SDS011;66490;51.484;0.026;2023-03-12T04:29:05;28.42;;;4.13;;
77417;SDS011;66490;51.484;0.026;2023-03-12T04:31:31;26.53;;;4.50;;
77417;SDS011;66490;51.484;0.026;2023-03-12T04:33:56;31.37;;;4.23;;
77417;SDS011;66490;51.484;0.026;2023-03-12T04:36:21;31.00;;;4.73;;
77417;SDS011;66490;51.484;0.026;2023-03-12T04:38:47;32.03;;;5.67;;
77417;SDS011;66490;51.484;0.026;2023-03-12T04:41:13;29.73;;;5.27;;
77417;SDS011;66490;51.484;0.026;2023-03-12T04:43:38;31.38;;;4.40;;
77417;SDS011;66490;51.484;0.026;2023-03-12T04:46:04;28.93;;;4.27;;
77417;SDS011;66490;51.484;0.026;2023-03-12T04:48:30;36.65;;;5.00;;
77417;SDS011;66490;51.484;0.026;2023-03-12T04:50:55;33.17;;;3.97;;
77417;SDS011;66490;51.484;0.026;2023-03-12T04:53:21;36.65;;;5.00;;
77417;SDS011;66490;51.484;0.026;2023-03-12T04:55:46;31.67;;;5.33;;
77417;SDS011;66490;51.484;0.026;2023-03-12T04:58:13;37.37;;;5.17;;
77417;SDS011;66490;51.484;0.026;2023-03-12T05:00:39;36.35;;;5.00;;
77417;SDS011;66490;51.484;0.026;2023-03-12T05:03:04;35.78;;;4.43;;
77417;SDS011;66490;51.484;0.026;2023-03-12T05:05:30;33.93;;;4.83;;
77417;SDS011;66490;51.484;0.026;2023-03-12T05:07:55;31.20;;;4.63;;
77417;SDS011;66490;51.484;0.026;2023-03-12T05:10:20;34.00;;;4.67;;
77417;SDS011;66490;51.484;0.026;2023-03-12T05:12:46;33.83;;;5.73;;
77417;SDS011;66490;51.484;0.026;2023-03-12T05:15:11;31.57;;;5.03;;
77417;SDS011;66490;51.484;0.026;2023-03-12T05:17:36;39.33;;;5.70;;
77417;SDS011;66490;51.484;0.026;2023-03-12T05:20:02;38.30;;;5.57;;
77417;SDS011;66490;51.484;0.026;2023-03-12T05:22:29;29.43;;;5.67;;
77417;SDS011;66490;51.484;0.026;2023-03-12T05:24:54;45.47;;;5.53;;
77417;SDS011;66490;51.484;0.026;2023-03-12T05:27:19;32.28;;;4.80;;
77417;SDS011;66490;51.484;0.026;2023-03-12T05:29:45;38.30;;;6.60;;
77417;SDS011;66490;51.484;0.026;2023-03-12T05:32:10;34.60;;;4.77;;
77417;SDS011;66490;51.484;0.026;2023-03-12T05:34:36;33.03;;;5.03;;
77417;SDS011;66490;51.484;0.026;2023-03-12T05:37:01;35.73;;;5.93;;
77417;SDS011;66490;51.484;0.026;2023-03-12T05:39:27;34.75;;;4.47;;
77417;SDS011;66490;51.484;0.026;2023-03-12T05:41:52;39.63;;;5.00;;
77417;SDS011;66490;51.484;0.026;2023-03-12T05:44:24;31.27;;;5.57;;
77417;SDS011;66490;51.484;0.026;2023-03-12T05:46:49;37.87;;;6.13;;
77417;SDS011;66490;51.484;0.026;2023-03-12T05:49:15;31.80;;;4.40;;
77417;SDS011;66490;51.484;0.026;2023-03-12T05:51:40;38.57;;;5.23;;
77417;SDS011;66490;51.484;0.026;2023-03-12T05:54:07;39.78;;;6.28;;
77417;SDS011;66490;51.484;0.026;2023-03-12T05:56:34;44.17;;;5.83;;
77417;SDS011;66490;51.484;0.026;2023-03-12T05:58:59;26.02;;;4.65;;
77417;SDS011;66490;51.484;0.026;2023-03-12T06:01:26;35.43;;;5.40;;
77417;SDS011;66490;51.484;0.026;2023-03-12T06:03:52;44.70;;;5.55;;
77417;SDS011;66490;51.484;0.026;2023-03-12T06:06:18;45.27;;;5.60;;
77417;SDS011;66490;51.484;0.026;2023-03-12T06:08:46;44.63;;;5.63;;
77417;SDS011;66490;51.484;0.026;2023-03-12T06:11:11;40.42;;;6.53;;
77417;SDS011;66490;51.484;0.026;2023-03-12T06:13:37;37.37;;;5.00;;
77417;SDS011;66490;51.484;0.026;2023-03-12T06:18:29;37.05;;;4.78;;
77417;SDS011;66490;51.484;0.026;2023-03-12T06:20:54;39.65;;;6.57;;
77417;SDS011;66490;51.484;0.026;2023-03-12T06:23:19;40.77;;;4.77;;
77417;SDS011;66490;51.484;0.026;2023-03-12T06:25:45;38.07;;;5.20;;
77417;SDS011;66490;51.484;0.026;2023-03-12T06:28:10;35.70;;;5.37;;
77417;SDS011;66490;51.484;0.026;2023-03-12T06:30:35;37.23;;;5.50;;
77417;SDS011;66490;51.484;0.026;2023-03-12T06:33:00;41.20;;;5.97;;
77417;SDS011;66490;51.484;0.026;2023-03-12T06:35:28;37.35;;;5.38;;
77417;SDS011;66490;51.484;0.026;2023-03-12T06:37:53;46.97;;;5.47;;
77417;SDS011;66490;51.484;0.026;2023-03-12T06:40:18;36.17;;;5.00;;
77417;SDS011;66490;51.484;0.026;2023-03-12T06:42:44;35.93;;;4.50;;
77417;SDS011;66490;51.484;0.026;2023-03-12T06:45:09;34.67;;;5.43;;
77417;SDS011;66490;51.484;0.026;2023-03-12T06:47:35;36.13;;;5.40;;
77417;SDS011;66490;51.484;0.026;2023-03-12T06:50:00;31.50;;;4.50;;
77417;SDS011;66490;51.484;0.026;2023-03-12T06:52:26;28.48;;;5.13;;
77417;SDS011;66490;51.484;0.026;2023-03-12T06:54:54;41.07;;;4.90;;
77417;SDS011;66490;51.484;0.026;2023-03-12T06:57:19;44.47;;;5.57;;
77417;SDS011;66490;51.484;0.026;2023-03-12T06:59:45;28.10;;;4.30;;
77417;SDS011;66490;51.484;0.026;2023-03-12T07:02:10;37.43;;;5.73;;
77417;SDS011;66490;51.484;0.026;2023-03-12T07:04:36;32.60;;;5.03;;
77417;SDS011;66490;51.484;0.026;2023-03-12T07:07:01;41.70;;;6.13;;
77417;SDS011;66490;51.484;0.026;2023-03-12T07:09:27;28.33;;;5.00;;
77417;SDS011;66490;51.484;0.026;2023-03-12T07:11:52;36.77;;;5.77;;
77417;SDS011;66490;51.484;0.026;2023-03-12T07:14:20;37.53;;;5.23;;
77417;SDS011;66490;51.484;0.026;2023-03-12T07:16:46;33.23;;;5.90;;
77417;SDS011;66490;51.484;0.026;2023-03-12T07:19:12;27.95;;;5.03;;
77417;SDS011;66490;51.484;0.026;2023-03-12T07:21:38;35.58;;;5.93;;
77417;SDS011;66490;51.484;0.026;2023-03-12T07:24:03;33.77;;;6.53;;
77417;SDS011;66490;51.484;0.026;2023-03-12T07:26:31;38.90;;;6.18;;
77417;SDS011;66490;51.484;0.026;2023-03-12T07:28:57;42.22;;;7.10;;
77417;SDS011;66490;51.484;0.026;2023-03-12T07:31:22;35.63;;;5.97;;
77417;SDS011;66490;51.484;0.026;2023-03-12T07:33:50;36.77;;;5.57;;
77417;SDS011;66490;51.484;0.026;2023-03-12T07:36:16;27.33;;;5.38;;
77417;SDS011;66490;51.484;0.026;2023-03-12T07:38:41;31.43;;;4.57;;
77417;SDS011;66490;51.484;0.026;2023-03-12T07:41:07;43.03;;;5.30;;
77417;SDS011;66490;51.484;0.026;2023-03-12T07:43:32;43.55;;;5.28;;
77417;SDS011;66490;51.484;0.026;2023-03-12T07:45:58;33.20;;;4.80;;
77417;SDS011;66490;51.484;0.026;2023-03-12T07:48:26;33.20;;;5.73;;
77417;SDS011;66490;51.484;0.026;2023-03-12T07:50:51;28.67;;;4.72;;
77417;SDS011;66490;51.484;0.026;2023-03-12T07:53:17;35.60;;;5.20;;
77417;SDS011;66490;51.484;0.026;2023-03-12T07:55:45;25.85;;;4.50;;
77417;SDS011;66490;51.484;0.026;2023-03-12T07:58:11;32.20;;;4.60;;
77417;SDS011;66490;51.484;0.026;2023-03-12T08:00:39;32.72;;;4.72;;
77417;SDS011;66490;51.484;0.026;2023-03-12T08:03:05;35.07;;;5.53;;
77417;SDS011;66490;51.484;0.026;2023-03-12T08:05:30;21.45;;;4.05;;
77417;SDS011;66490;51.484;0.026;2023-03-12T08:07:55;34.10;;;5.00;;
77417;SDS011;66490;51.484;0.026;2023-03-12T08:10:21;37.63;;;5.13;;
77417;SDS011;66490;51.484;0.026;2023-03-12T08:12:46;34.00;;;6.47;;
77417;SDS011;66490;51.484;0.026;2023-03-12T08:15:12;39.47;;;5.67;;
77417;SDS011;66490;51.484;0.026;2023-03-12T08:17:38;34.17;;;5.23;;
77417;SDS011;66490;51.484;0.026;2023-03-12T08:20:04;32.25;;;5.22;;
77417;SDS011;66490;51.484;0.026;2023-03-12T08:22:33;33.70;;;5.40;;
77417;SDS011;66490;51.484;0.026;2023-03-12T08:24:58;26.57;;;4.63;;
77417;SDS011;66490;51.484;0.026;2023-03-12T08:27:23;32.33;;;4.20;;
77417;SDS011;66490;51.484;0.026;2023-03-12T08:29:49;29.93;;;4.60;;
77417;SDS011;66490;51.484;0.026;2023-03-12T08:32:14;32.50;;;4.13;;
77417;SDS011;66490;51.484;0.026;2023-03-12T08:34:39;38.47;;;5.27;;
77417;SDS011;66490;51.484;0.026;2023-03-12T08:37:05;28.00;;;6.20;;
77417;SDS011;66490;51.484;0.026;2023-03-12T08:39:30;37.23;;;4.70;;
77417;SDS011;66490;51.484;0.026;2023-03-12T08:41:55;33.83;;;6.60;;
77417;SDS011;66490;51.484;0.026;2023-03-12T08:44:21;25.93;;;4.17;;
77417;SDS011;66490;51.484;0.026;2023-03-12T08:46:46;30.65;;;4.72;;
77417;SDS011;66490;51.484;0.026;2023-03-12T08:49:12;27.20;;;4.17;;
77417;SDS011;66490;51.484;0.026;2023-03-12T08:51:38;33.40;;;4.70;;
77417;SDS011;66490;51.484;0.026;2023-03-12T08:54:03;40.53;;;5.47;;
77417;SDS011;66490;51.484;0.026;2023-03-12T08:56:29;30.63;;;4.70;;
77417;SDS011;66490;51.484;0.026;2023-03-12T08:58:58;31.05;;;4.72;;
77417;SDS011;66490;51.484;0.026;2023-03-12T09:01:23;30.67;;;3.70;;
77417;SDS011;66490;51.484;0.026;2023-03-12T09:03:49;27.85;;;4.00;;
77417;SDS011;66490;51.484;0.026;2023-03-12T09:06:16;26.23;;;4.60;;
77417;SDS011;66490;51.484;0.026;2023-03-12T09:08:43;34.25;;;4.57;;
77417;SDS011;66490;51.484;0.026;2023-03-12T09:11:09;33.25;;;5.90;;
77417;SDS011;66490;51.484;0.026;2023-03-12T09:13:35;23.88;;;3.67;;
77417;SDS011;66490;51.484;0.026;2023-03-12T09:16:01;35.30;;;4.63;;
77417;SDS011;66490;51.484;0.026;2023-03-12T09:18:27;35.95;;;5.38;;
77417;SDS011;66490;51.484;0.026;2023-03-12T09:20:53;34.63;;;5.03;;
77417;SDS011;66490;51.484;0.026;2023-03-12T09:23:18;27.57;;;4.63;;
77417;SDS011;66490;51.484;0.026;2023-03-12T09:25:44;23.70;;;4.50;;
77417;SDS011;66490;51.484;0.026;2023-03-12T09:28:10;28.33;;;4.15;;
77417;SDS011;66490;51.484;0.026;2023-03-12T09:30:36;35.13;;;5.00;;
77417;SDS011;66490;51.484;0.026;2023-03-12T09:33:01;20.45;;;4.28;;
77417;SDS011;66490;51.484;0.026;2023-03-12T09:35:27;23.37;;;3.30;;
77417;SDS011;66490;51.484;0.026;2023-03-12T09:37:52;28.63;;;5.13;;
77417;SDS011;66490;51.484;0.026;2023-03-12T09:40:21;27.23;;;3.85;;
77417;SDS011;66490;51.484;0.026;2023-03-12T09:42:51;27.83;;;4.90;;
77417;SDS011;66490;51.484;0.026;2023-03-12T09:45:19;27.13;;;3.90;;
77417;SDS011;66490;51.484;0.026;2023-03-12T09:47:46;28.90;;;4.35;;
77417;SDS011;66490;51.484;0.026;2023-03-12T09:50:18;25.53;;;4.37;;
77417;SDS011;66490;51.484;0.026;2023-03-12T09:52:46;27.00;;;5.82;;
77417;SDS011;66490;51.484;0.026;2023-03-12T09:55:13;30.33;;;3.95;;
77417;SDS011;66490;51.484;0.026;2023-03-12T09:57:39;32.83;;;5.13;;
77417;SDS011;66490;51.484;0.026;2023-03-12T10:00:05;22.80;;;5.43;;
77417;SDS011;66490;51.484;0.026;2023-03-12T10:05:08;26.65;;;3.80;;
77417;SDS011;66490;51.484;0.026;2023-03-12T10:07:36;30.02;;;4.75;;
77417;SDS011;66490;51.484;0.026;2023-03-12T10:17:44;25.80;;;3.13;;
77417;SDS011;66490;51.484;0.026;2023-03-12T10:25:10;26.80;;;3.90;;
77417;SDS011;66490;51.484;0.026;2023-03-12T10:27:37;28.33;;;4.10;;
77417;SDS011;66490;51.484;0.026;2023-03-12T10:30:04;29.23;;;3.77;;
77417;SDS011;66490;51.484;0.026;2023-03-12T10:32:41;20.50;;;3.78;;
77417;SDS011;66490;51.484;0.026;2023-03-12T10:35:18;23.95;;;4.75;;
77417;SDS011;66490;51.484;0.026;2023-03-12T10:37:47;26.93;;;3.67;;
77417;SDS011;66490;51.484;0.026;2023-03-12T10:40:18;20.55;;;3.50;;
77417;SDS011;66490;51.484;0.026;2023-03-12T10:42:44;20.08;;;4.18;;
77417;SDS011;66490;51.484;0.026;2023-03-12T10:50:13;27.73;;;5.20;;
77417;SDS011;66490;51.484;0.026;2023-03-12T10:52:40;25.10;;;3.65;;
77417;SDS011;66490;51.484;0.026;2023-03-12T10:57:38;26.90;;;4.05;;
77417;SDS011;66490;51.484;0.026;2023-03-12T11:00:06;29.45;;;4.53;;
77417;SDS011;66490;51.484;0.026;2023-03-12T11:02:34;26.20;;;4.00;;
77417;SDS011;66490;51.484;0.026;2023-03-12T11:05:08;30.63;;;4.10;;
77417;SDS011;66490;51.484;0.026;2023-03-12T11:07:44;20.73;;;3.88;;
77417;SDS011;66490;51.484;0.026;2023-03-12T11:12:35;24.50;;;4.63;;
77417;SDS011;66490;51.484;0.026;2023-03-12T11:16:02;24.13;;;4.35;;
77417;SDS011;66490;51.484;0.026;2023-03-12T11:20:40;24.13;;;3.27;;
77417;SDS011;66490;51.484;0.026;2023-03-12T11:23:13;25.80;;;4.23;;
77417;SDS011;66490;51.484;0.026;2023-03-12T11:25:39;27.45;;;4.05;;
77417;SDS011;66490;51.484;0.026;2023-03-12T11:28:04;25.33;;;4.13;;
77417;SDS011;66490;51.484;0.026;2023-03-12T11:30:35;25.10;;;4.03;;
77417;SDS011;66490;51.484;0.026;2023-03-12T11:33:01;23.45;;;4.43;;
77417;SDS011;66490;51.484;0.026;2023-03-12T11:38:18;25.03;;;5.17;;
77417;SDS011;66490;51.484;0.026;2023-03-12T11:46:06;20.65;;;3.28;;
77417;SDS011;66490;51.484;0.026;2023-03-12T11:58:56;14.85;;;2.28;;
77417;SDS011;66490;51.484;0.026;2023-03-12T12:04:26;30.02;;;13.32;;
77417;SDS011;66490;51.484;0.026;2023-03-12T12:09:42;20.57;;;3.77;;
77417;SDS011;66490;51.484;0.026;2023-03-12T12:17:16;18.67;;;3.65;;
77417;SDS011;66490;51.484;0.026;2023-03-12T12:22:35;31.17;;;7.97;;
77417;SDS011;66490;51.484;0.026;2023-03-12T12:27:35;25.00;;;5.55;;
77417;SDS011;66490;51.484;0.026;2023-03-12T12:35:22;21.03;;;4.80;;
77417;SDS011;66490;51.484;0.026;2023-03-12T12:40:34;22.75;;;3.97;;
77417;SDS011;66490;51.484;0.026;2023-03-12T12:45:42;24.10;;;4.15;;
77417;SDS011;66490;51.484;0.026;2023-03-12T12:51:00;25.90;;;2.97;;
77417;SDS011;66490;51.484;0.026;2023-03-12T12:53:32;21.90;;;4.28;;
77417;SDS011;66490;51.484;0.026;2023-03-12T13:01:02;20.60;;;3.07;;
77417;SDS011;66490;51.484;0.026;2023-03-12T13:03:27;19.73;;;3.20;;
77417;SDS011;66490;51.484;0.026;2023-03-12T13:05:59;21.45;;;4.38;;
77417;SDS011;66490;51.484;0.026;2023-03-12T13:13:44;24.55;;;3.22;;
77417;SDS011;66490;51.484;0.026;2023-03-12T13:16:17;16.70;;;3.85;;
77417;SDS011;66490;51.484;0.026;2023-03-12T13:18:56;18.40;;;3.20;;
77417;SDS011;66490;51.484;0.026;2023-03-12T13:26:50;23.52;;;4.25;;
77417;SDS011;66490;51.484;0.026;2023-03-12T13:29:33;29.45;;;4.82;;
77417;SDS011;66490;51.484;0.026;2023-03-12T13:32:03;19.05;;;3.97;;
77417;SDS011;66490;51.484;0.026;2023-03-12T13:34:30;18.50;;;3.30;;
77417;SDS011;66490;51.484;0.026;2023-03-12T13:36:56;23.42;;;4.70;;
77417;SDS011;66490;51.484;0.026;2023-03-12T13:41:54;19.73;;;3.55;;
77417;SDS011;66490;51.484;0.026;2023-03-12T13:44:28;21.83;;;4.25;;
77417;SDS011;66490;51.484;0.026;2023-03-12T13:52:26;25.77;;;4.05;;
77417;SDS011;66490;51.484;0.026;2023-03-12T13:55:37;19.55;;;3.30;;
77417;SDS011;66490;51.484;0.026;2023-03-12T13:57:40;18.65;;;3.70;;
77417;SDS011;66490;51.484;0.026;2023-03-12T14:00:24;18.07;;;3.67;;
77417;SDS011;66490;51.484;0.026;2023-03-12T14:02:51;18.17;;;3.60;;
77417;SDS011;66490;51.484;0.026;2023-03-12T14:05:18;18.13;;;3.80;;
77417;SDS011;66490;51.484;0.026;2023-03-12T14:08:03;17.67;;;3.40;;
77417;SDS011;66490;51.484;0.026;2023-03-12T14:13:03;18.20;;;3.03;;
77417;SDS011;66490;51.484;0.026;2023-03-12T14:18:09;15.67;;;2.80;;
77417;SDS011;66490;51.484;0.026;2023-03-12T14:20:38;16.33;;;2.90;;
77417;SDS011;66490;51.484;0.026;2023-03-12T14:23:06;14.27;;;2.97;;
77417;SDS011;66490;51.484;0.026;2023-03-12T14:28:01;12.93;;;2.40;;
77417;SDS011;66490;51.484;0.026;2023-03-12T14:30:30;11.47;;;2.40;;
77417;SDS011;66490;51.484;0.026;2023-03-12T14:32:58;17.83;;;3.05;;
77417;SDS011;66490;51.484;0.026;2023-03-12T14:35:34;10.45;;;1.52;;
77417;SDS011;66490;51.484;0.026;2023-03-12T14:38:05;10.40;;;2.05;;
77417;SDS011;66490;51.484;0.026;2023-03-12T14:40:35;8.43;;;1.80;;
77417;SDS011;66490;51.484;0.026;2023-03-12T14:45:45;10.80;;;2.40;;
77417;SDS011;66490;51.484;0.026;2023-03-12T14:48:10;11.60;;;1.73;;
77417;SDS011;66490;51.484;0.026;2023-03-12T14:50:37;8.80;;;2.25;;
77417;SDS011;66490;51.484;0.026;2023-03-12T14:53:13;12.57;;;1.77;;
77417;SDS011;66490;51.484;0.026;2023-03-12T14:55:42;11.48;;;1.60;;
77417;SDS011;66490;51.484;0.026;2023-03-12T14:58:15;10.13;;;2.10;;
77417;SDS011;66490;51.484;0.026;2023-03-12T15:00:41;16.13;;;2.17;;
77417;SDS011;66490;51.484;0.026;2023-03-12T15:03:09;13.23;;;2.22;;
77417;SDS011;66490;51.484;0.026;2023-03-12T15:05:36;15.15;;;2.75;;
77417;SDS011;66490;51.484;0.026;2023-03-12T15:08:02;16.67;;;2.93;;
77417;SDS011;66490;51.484;0.026;2023-03-12T15:10:28;19.73;;;3.53;;
77417;SDS011;66490;51.484;0.026;2023-03-12T15:12:58;15.50;;;3.80;;
77417;SDS011;66490;51.484;0.026;2023-03-12T15:17:55;17.10;;;2.92;;
77417;SDS011;66490;51.484;0.026;2023-03-12T15:20:21;23.08;;;3.42;;
77417;SDS011;66490;51.484;0.026;2023-03-12T15:22:47;16.10;;;2.63;;
77417;SDS011;66490;51.484;0.026;2023-03-12T15:30:34;17.23;;;2.80;;
77417;SDS011;66490;51.484;0.026;2023-03-12T15:35:28;23.63;;;3.55;;
77417;SDS011;66490;51.484;0.026;2023-03-12T15:37:54;12.47;;;1.97;;
77417;SDS011;66490;51.484;0.026;2023-03-12T15:40:22;13.47;;;2.83;;
77417;SDS011;66490;51.484;0.026;2023-03-12T15:42:48;11.98;;;2.35;;
77417;SDS011;66490;51.484;0.026;2023-03-12T15:45:18;17.70;;;3.08;;
77417;SDS011;66490;51.484;0.026;2023-03-12T15:47:43;15.05;;;3.25;;
77417;SDS011;66490;51.484;0.026;2023-03-12T15:52:59;14.75;;;2.88;;
77417;SDS011;66490;51.484;0.026;2023-03-12T15:55:26;14.82;;;2.70;;
77417;SDS011;66490;51.484;0.026;2023-03-12T15:57:53;10.38;;;2.80;;
77417;SDS011;66490;51.484;0.026;2023-03-12T16:05:19;8.18;;;2.13;;
77417;SDS011;66490;51.484;0.026;2023-03-12T16:07:45;10.02;;;2.47;;
77417;SDS011;66490;51.484;0.026;2023-03-12T16:10:14;9.33;;;2.03;;
77417;SDS011;66490;51.484;0.026;2023-03-12T16:12:40;11.35;;;2.55;;
77417;SDS011;66490;51.484;0.026;2023-03-12T16:15:10;12.20;;;2.30;;
77417;SDS011;66490;51.484;0.026;2023-03-12T16:17:37;10.27;;;2.63;;
77417;SDS011;66490;51.484;0.026;2023-03-12T16:20:02;9.10;;;2.63;;
77417;SDS011;66490;51.484;0.026;2023-03-12T16:22:29;11.18;;;2.60;;
77417;SDS011;66490;51.484;0.026;2023-03-12T16:24:55;8.43;;;1.57;;
77417;SDS011;66490;51.484;0.026;2023-03-12T16:27:20;9.93;;;1.97;;
77417;SDS011;66490;51.484;0.026;2023-03-12T16:29:45;10.30;;;2.00;;
77417;SDS011;66490;51.484;0.026;2023-03-12T16:32:11;11.17;;;2.00;;
77417;SDS011;66490;51.484;0.026;2023-03-12T16:34:37;7.68;;;1.73;;
77417;SDS011;66490;51.484;0.026;2023-03-12T16:37:07;8.77;;;1.50;;
77417;SDS011;66490;51.484;0.026;2023-03-12T16:39:35;9.63;;;2.13;;
77417;SDS011;66490;51.484;0.026;2023-03-12T16:42:01;9.70;;;1.67;;
77417;SDS011;66490;51.484;0.026;2023-03-12T16:44:28;11.68;;;1.70;;
77417;SDS011;66490;51.484;0.026;2023-03-12T16:46:54;7.00;;;2.05;;
77417;SDS011;66490;51.484;0.026;2023-03-12T16:49:19;8.47;;;1.60;;